createdAt,value
2019-01-04T00:03:56.528Z,102480.84
2019-01-04T00:09:52.059Z,102470.79
2019-01-04T00:12:40.193Z,102479.46
2019-01-04T00:15:28.328Z,102476.85
2019-01-04T00:27:36.508Z,102486.17
2019-01-04T00:30:23.839Z,102493.55
2019-01-04T00:33:11.234Z,102488.91
2019-01-04T00:39:05.985Z,102498.16
2019-01-04T00:41:53.448Z,102497.42
2019-01-04T00:44:42.446Z,102498.09
2019-01-04T00:47:29.494Z,102496.73
2019-01-04T00:50:17.541Z,102495.79
2019-01-04T00:53:06.792Z,102494.87
2019-01-04T00:56:12.609Z,102493.02
2019-01-04T00:59:20.765Z,102496.45
2019-01-04T01:02:26.728Z,102498.55
2019-01-04T01:05:25.193Z,102498.11
2019-01-04T01:22:03.797Z,102487.63
2019-01-04T02:01:15.531Z,102502.55
2019-01-04T02:04:02.983Z,102503.34
2019-01-04T02:06:52.159Z,102502.02
2019-01-04T02:09:41.717Z,102501.97
2019-01-04T02:12:31.939Z,102504.13
2019-01-04T02:15:23.686Z,102493.67
2019-01-04T02:18:11.720Z,102500.59
2019-01-04T02:21:04.254Z,102490.59
2019-01-04T02:26:59.648Z,102487.11
2019-01-04T02:32:55.866Z,102484.06
2019-01-04T02:35:45.266Z,102481.06
2019-01-04T02:44:47.551Z,102476.64
2019-01-04T02:56:59.575Z,102463.59
2019-01-04T03:09:11.412Z,102458.05
2019-01-04T03:11:59.285Z,102450.24
2019-01-04T03:27:25.498Z,102437.00
2019-01-04T03:30:14.789Z,102438.53
2019-01-04T03:33:03.300Z,102439.16
2019-01-04T03:45:12.547Z,102441.59
2019-01-04T03:48:03.264Z,102440.64
2019-01-04T03:50:51.874Z,102429.72
2019-01-04T03:59:55.268Z,102428.31
2019-01-04T04:02:42.849Z,102416.58
2019-01-04T04:05:30.413Z,102413.06
2019-01-04T04:08:19.029Z,102406.50
2019-01-04T04:11:06.843Z,102399.87
2019-01-04T04:13:54.274Z,102399.72
2019-01-04T04:16:41.525Z,102389.17
2019-01-04T04:31:55.371Z,102370.26
2019-01-04T04:34:42.527Z,102366.75
2019-01-04T04:46:56.531Z,102361.49
2019-01-04T04:49:43.812Z,102358.02
2019-01-04T05:04:56.002Z,102349.69
2019-01-04T05:07:44.142Z,102354.01
2019-01-04T05:10:31.629Z,102348.33
2019-01-04T05:13:19.297Z,102343.95
2019-01-04T05:16:08.275Z,102348.69
2019-01-04T05:22:05.861Z,102349.76
2019-01-04T05:24:53.341Z,102350.05
2019-01-04T05:27:40.870Z,102350.80
2019-01-04T05:30:28.243Z,102349.88
2019-01-04T05:33:17.430Z,102340.64
2019-01-04T05:36:06.171Z,102347.07
2019-01-04T05:42:00.470Z,102341.58
2019-01-04T05:44:48.370Z,102342.77
2019-01-04T05:47:36.429Z,102348.72
2019-01-04T05:50:27.184Z,102332.95
2019-01-04T05:53:14.673Z,102332.47
2019-01-04T05:56:02.100Z,102327.59
2019-01-04T05:58:49.751Z,102326.23
2019-01-04T06:01:37.817Z,102326.50
2019-01-04T06:04:27.084Z,102329.11
2019-01-04T06:07:14.659Z,102333.37
2019-01-04T06:10:01.742Z,102328.12
2019-01-04T06:13:01.094Z,102331.55
2019-01-04T06:15:48.900Z,102325.45
2019-01-04T06:24:53.111Z,102311.78
2019-01-04T06:27:40.485Z,102303.88
2019-01-04T06:30:27.761Z,102302.97
2019-01-04T06:36:32.183Z,102314.66
2019-01-04T06:39:21.536Z,102308.99
2019-01-04T06:42:10.658Z,102316.84
2019-01-04T06:44:57.796Z,102316.84
2019-01-04T06:47:45.333Z,102317.28
2019-01-04T06:53:56.636Z,102320.77
2019-01-04T07:02:59.080Z,102318.33
2019-01-04T07:05:46.771Z,102314.78
2019-01-04T07:08:34.461Z,102316.48
2019-01-04T07:11:22.080Z,102312.98
2019-01-04T07:14:09.860Z,102314.02
2019-01-04T07:16:57.912Z,102311.95
2019-01-04T07:19:45.504Z,102316.22
2019-01-04T07:22:33.346Z,102316.17
2019-01-04T07:25:20.870Z,102317.47
2019-01-04T07:28:10.242Z,102311.79
2019-01-04T07:30:57.727Z,102307.44
2019-01-04T07:33:45.905Z,102294.31
2019-01-04T07:36:33.711Z,102294.72
2019-01-04T07:39:21.705Z,102292.95
2019-01-04T07:42:09.589Z,102294.83
2019-01-04T07:44:57.361Z,102292.71
2019-01-04T07:47:45.174Z,102291.77
2019-01-04T07:50:41.932Z,102283.48
2019-01-04T07:53:29.338Z,102293.93
2019-01-04T07:56:17.186Z,102285.23
2019-01-04T07:59:04.468Z,102283.17
2019-01-04T08:01:52.419Z,102280.69
2019-01-04T08:04:39.742Z,102278.11
2019-01-04T08:07:27.691Z,102280.42
2019-01-04T08:10:15.697Z,102277.26
2019-01-04T08:13:11.548Z,102276.75
2019-01-04T08:15:58.850Z,102270.16
2019-01-04T08:18:46.392Z,102266.70
2019-01-04T08:21:33.953Z,102267.73
2019-01-04T08:24:21.652Z,102268.48
2019-01-04T08:27:08.926Z,102258.02
2019-01-04T08:29:56.820Z,102253.66
2019-01-04T08:32:45.750Z,102246.20
2019-01-04T08:35:33.913Z,102234.45
2019-01-04T08:38:21.522Z,102239.29
2019-01-04T08:41:09.132Z,102237.54
2019-01-04T08:43:57.289Z,102241.87
2019-01-04T08:46:46.255Z,102238.60
2019-01-04T08:49:33.645Z,102232.05
2019-01-04T08:52:20.962Z,102230.59
2019-01-04T08:55:08.454Z,102233.07
2019-01-04T09:01:02.763Z,102218.17
2019-01-04T09:06:57.069Z,102214.05
2019-01-04T09:09:45.852Z,102220.50
2019-01-04T09:12:36.158Z,102222.64
2019-01-04T09:15:23.674Z,102227.84
2019-01-04T09:18:12.174Z,102230.86
2019-01-04T09:20:59.504Z,102232.59
2019-01-04T09:23:47.118Z,102227.80
2019-01-04T09:26:34.940Z,102229.11
2019-01-04T09:29:32.087Z,102218.65
2019-01-04T09:32:19.592Z,102226.53
2019-01-04T09:35:08.995Z,102217.53
2019-01-04T09:37:57.190Z,102215.75
2019-01-04T09:40:44.513Z,102212.69
2019-01-04T09:43:31.980Z,102214.45
2019-01-04T09:46:19.869Z,102209.23
2019-01-04T09:49:08.132Z,102197.02
2019-01-04T09:52:05.525Z,102194.25
2019-01-04T09:54:53.419Z,102192.20
2019-01-04T09:57:41.561Z,102169.06
2019-01-04T10:00:29.361Z,102172.13
2019-01-04T10:03:17.057Z,102163.84
2019-01-04T10:06:04.664Z,102156.88
2019-01-04T10:08:52.981Z,102138.52
2019-01-04T10:11:40.721Z,102131.10
2019-01-04T10:14:28.991Z,102119.33
2019-01-04T10:17:18.396Z,102113.23
2019-01-04T10:20:10.050Z,102114.52
2019-01-04T10:22:58.029Z,102105.36
2019-01-04T10:25:45.297Z,102100.80
2019-01-04T10:28:32.693Z,102090.91
2019-01-04T10:31:20.530Z,102084.84
2019-01-04T10:34:08.674Z,102075.23
2019-01-04T10:36:56.291Z,102061.70
2019-01-04T10:39:44.236Z,102053.97
2019-01-04T10:42:33.727Z,102051.14
2019-01-04T10:45:21.268Z,102045.52
2019-01-04T10:48:08.521Z,102038.11
2019-01-04T10:50:58.897Z,102040.77
2019-01-04T10:53:46.950Z,102030.72
2019-01-04T10:56:39.184Z,102021.61
2019-01-04T10:59:26.821Z,102019.31
2019-01-04T11:02:14.678Z,102004.08
2019-01-04T11:05:02.444Z,101998.86
2019-01-04T11:07:49.753Z,102005.41
2019-01-04T11:10:40.017Z,102001.06
2019-01-04T11:13:27.916Z,101991.97
2019-01-04T11:16:15.416Z,101987.02
2019-01-04T11:19:02.924Z,101984.01
2019-01-04T11:21:50.307Z,101979.22
2019-01-04T11:24:43.909Z,101973.55
2019-01-04T11:27:31.194Z,101963.51
2019-01-04T11:30:18.669Z,101957.41
2019-01-04T11:33:08.263Z,101958.73
2019-01-04T11:39:16.974Z,101936.97
2019-01-04T11:42:21.671Z,101934.81
2019-01-04T11:45:17.835Z,101926.97
2019-01-04T11:48:14.021Z,101930.92
2019-01-04T11:51:17.038Z,101916.51
2019-01-04T11:54:05.927Z,101918.70
2019-01-04T11:57:10.516Z,101918.25
2019-01-04T11:59:58.383Z,101918.71
2019-01-04T12:02:46.191Z,101909.98
2019-01-04T12:05:34.889Z,101900.16
2019-01-04T12:08:22.629Z,101889.89
2019-01-04T12:11:10.045Z,101878.56
2019-01-04T12:14:00.159Z,101875.95
2019-01-04T12:16:48.390Z,101865.52
2019-01-04T12:19:36.153Z,101873.36
2019-01-04T12:22:30.596Z,101872.91
2019-01-04T12:25:21.875Z,101872.48
2019-01-04T12:28:10.232Z,101868.20
2019-01-04T12:30:58.474Z,101868.88
2019-01-04T12:33:47.288Z,101858.44
2019-01-04T12:36:34.532Z,101856.29
2019-01-04T12:42:31.749Z,101842.27
2019-01-04T12:45:20.082Z,101832.24
2019-01-04T12:48:07.847Z,101834.45
2019-01-04T12:50:57.564Z,101828.38
2019-01-04T12:53:45.440Z,101814.88
2019-01-04T12:56:33.246Z,101800.85
2019-01-04T12:59:22.892Z,101806.46
2019-01-04T13:02:14.915Z,101802.16
2019-01-04T13:05:10.160Z,101799.16
2019-01-04T13:07:59.680Z,101793.48
2019-01-04T13:10:47.355Z,101786.07
2019-01-04T13:13:36.990Z,101782.58
2019-01-04T13:16:24.416Z,101796.09
2019-01-04T13:19:12.241Z,101792.18
2019-01-04T13:22:02.387Z,101781.28
2019-01-04T13:24:50.063Z,101779.55
2019-01-04T13:27:37.442Z,101766.43
2019-01-04T13:30:24.704Z,101783.39
2019-01-04T13:33:12.225Z,101776.45
2019-01-04T13:36:00.401Z,101775.19
2019-01-04T13:38:47.977Z,101770.84
2019-01-04T13:41:35.403Z,101776.52
2019-01-04T13:44:23.194Z,101771.28
2019-01-04T13:47:10.953Z,101771.72
2019-01-04T13:49:58.800Z,101768.66
2019-01-04T13:52:46.935Z,101761.69
2019-01-04T13:55:34.820Z,101761.25
2019-01-04T13:58:22.180Z,101765.95
2019-01-04T14:01:09.841Z,101774.27
2019-01-04T14:03:57.413Z,101776.47
2019-01-04T14:06:44.977Z,101768.63
2019-01-04T14:09:33.630Z,101759.86
2019-01-04T14:12:23.587Z,101768.95
2019-01-04T14:15:11.379Z,101779.48
2019-01-04T14:17:59.157Z,101778.20
2019-01-04T14:20:51.649Z,101768.63
2019-01-04T14:23:42.883Z,101755.98
2019-01-04T14:26:40.017Z,101755.14
2019-01-04T14:29:27.415Z,101763.41
2019-01-04T14:32:14.915Z,101749.48
2019-01-04T14:35:02.666Z,101749.45
2019-01-04T14:37:50.630Z,101748.14
2019-01-04T14:40:38.779Z,101746.84
2019-01-04T14:43:26.690Z,101745.56
2019-01-04T14:46:14.519Z,101752.53
2019-01-04T14:49:02.415Z,101744.23
2019-01-04T14:54:58.702Z,101739.44
2019-01-04T14:57:46.112Z,101744.22
2019-01-04T15:00:37.857Z,101739.84
2019-01-04T15:03:27.097Z,101738.45
2019-01-04T15:06:15.643Z,101733.11
2019-01-04T15:09:05.224Z,101743.88
2019-01-04T15:11:52.862Z,101732.47
2019-01-04T15:17:55.436Z,101727.23
2019-01-04T15:20:48.343Z,101732.48
2019-01-04T15:23:36.972Z,101732.91
2019-01-04T15:26:24.275Z,101740.11
2019-01-04T15:29:14.773Z,101745.40
2019-01-04T15:32:03.083Z,101740.88
2019-01-04T15:34:52.483Z,101717.00
2019-01-04T15:37:40.164Z,101710.59
2019-01-04T15:40:27.641Z,101698.83
2019-01-04T15:43:16.173Z,101699.45
2019-01-04T15:46:17.961Z,101693.89
2019-01-04T15:49:05.981Z,101686.12
2019-01-04T15:51:54.527Z,101680.50
2019-01-04T15:54:43.579Z,101687.92
2019-01-04T15:57:30.939Z,101681.84
2019-01-04T16:00:18.438Z,101670.06
2019-01-04T16:03:07.447Z,101662.36
2019-01-04T16:05:55.027Z,101666.44
2019-01-04T16:08:43.446Z,101666.30
2019-01-04T16:11:32.688Z,101671.42
2019-01-04T16:14:20.379Z,101675.08
2019-01-04T16:17:12.268Z,101675.55
2019-01-04T16:19:56.599Z,101674.30
2019-01-04T16:22:44.779Z,101669.95
2019-01-04T16:25:32.561Z,101656.89
2019-01-04T16:28:20.375Z,101658.20
2019-01-04T16:31:07.607Z,101664.33
2019-01-04T16:33:55.992Z,101653.91
2019-01-04T16:36:54.331Z,101656.61
2019-01-04T16:39:42.163Z,101658.48
2019-01-04T16:42:30.003Z,101658.10
2019-01-04T16:45:17.327Z,101654.19
2019-01-04T16:48:05.195Z,101657.28
2019-01-04T16:50:53.587Z,101646.38
2019-01-04T16:53:41.858Z,101647.22
2019-01-04T16:56:29.077Z,101650.27
2019-01-04T16:59:17.226Z,101645.42
2019-01-04T17:02:06.352Z,101643.64
2019-01-04T17:04:54.449Z,101645.38
2019-01-04T17:07:43.368Z,101644.93
2019-01-04T17:10:31.122Z,101642.73
2019-01-04T17:13:18.762Z,101639.19
2019-01-04T17:16:06.690Z,101634.81
2019-01-04T17:18:56.185Z,101628.69
2019-01-04T17:21:44.047Z,101639.11
2019-01-04T17:24:32.238Z,101630.39
2019-01-04T17:27:20.065Z,101633.52
2019-01-04T17:30:08.214Z,101639.08
2019-01-04T17:32:57.685Z,101649.27
2019-01-04T17:35:48.319Z,101644.06
2019-01-04T17:38:40.304Z,101647.56
2019-01-04T17:41:28.089Z,101647.14
2019-01-04T17:44:15.770Z,101648.02
2019-01-04T17:47:08.473Z,101648.45
2019-01-04T17:49:56.979Z,101661.13
2019-01-04T17:52:53.947Z,101659.36
2019-01-04T17:55:42.443Z,101669.42
2019-01-04T17:58:31.002Z,101670.28
2019-01-04T18:01:20.346Z,101667.23
2019-01-04T18:04:10.899Z,101660.67
2019-01-04T18:06:58.759Z,101664.17
2019-01-04T18:09:47.837Z,101662.39
2019-01-04T18:12:36.509Z,101658.87
2019-01-04T18:15:41.287Z,101670.41
2019-01-04T18:18:30.375Z,101670.92
2019-01-04T18:21:17.920Z,101681.45
2019-01-04T18:24:05.174Z,101676.66
2019-01-04T18:26:53.938Z,101660.84
2019-01-04T18:29:41.868Z,101668.49
2019-01-04T18:32:32.835Z,101665.14
2019-01-04T18:35:23.922Z,101666.48
2019-01-04T18:38:25.955Z,101666.05
2019-01-04T18:41:14.860Z,101664.31
2019-01-04T18:44:04.894Z,101665.22
2019-01-04T18:50:00.537Z,101650.96
2019-01-04T18:52:50.419Z,101658.92
2019-01-04T18:55:39.456Z,101648.70
2019-01-04T18:58:26.489Z,101652.57
2019-01-04T19:01:15.285Z,101648.52
2019-01-04T19:04:03.037Z,101656.38
2019-01-04T19:06:53.469Z,101666.16
2019-01-04T19:09:46.647Z,101665.73
2019-01-04T19:12:36.332Z,101669.73
2019-01-04T19:15:26.157Z,101665.62
2019-01-04T19:18:13.526Z,101669.48
2019-01-04T19:21:00.747Z,101670.68
2019-01-04T19:23:48.173Z,101671.52
2019-01-04T19:29:42.978Z,101663.23
2019-01-04T19:32:30.509Z,101656.42
2019-01-04T19:35:18.201Z,101656.20
2019-01-04T19:38:09.159Z,101654.19
2019-01-04T19:40:55.953Z,101651.63
2019-01-04T19:43:53.668Z,101647.27
2019-01-04T19:46:40.923Z,101642.51
2019-01-04T19:49:39.261Z,101644.70
2019-01-04T19:52:29.933Z,101638.16
2019-01-04T19:55:18.842Z,101634.27
2019-01-04T19:58:19.762Z,101635.98
2019-01-04T20:01:08.396Z,101631.16
2019-01-04T20:03:59.210Z,101630.92
2019-01-04T23:54:21.552Z,101370.91
